sensor_id;sensor_type;location;lat;lon;timestamp;P1;durP1;ratioP1;P2;durP2;ratioP2
16468;SDS011;8345;50.902;6.956;2022-09-30T00:00:29;7.13;;;5.47;;
16468;SDS011;8345;50.902;6.956;2022-09-30T00:02:57;6.80;;;5.13;;
16468;SDS011;8345;50.902;6.956;2022-09-30T00:05:24;5.00;;;4.50;;
16468;SDS011;8345;50.902;6.956;2022-09-30T00:07:51;6.53;;;5.07;;
16468;SDS011;8345;50.902;6.956;2022-09-30T00:10:18;5.13;;;4.60;;
16468;SDS011;8345;50.902;6.956;2022-09-30T00:12:46;5.77;;;5.00;;
16468;SDS011;8345;50.902;6.956;2022-09-30T00:15:14;5.17;;;4.60;;
16468;SDS011;8345;50.902;6.956;2022-09-30T00:17:41;5.67;;;4.57;;
16468;SDS011;8345;50.902;6.956;2022-09-30T00:20:09;6.00;;;4.63;;
16468;SDS011;8345;50.902;6.956;2022-09-30T00:22:36;5.37;;;4.50;;
16468;SDS011;8345;50.902;6.956;2022-09-30T00:25:04;4.97;;;4.50;;
16468;SDS011;8345;50.902;6.956;2022-09-30T00:27:31;4.37;;;3.97;;
16468;SDS011;8345;50.902;6.956;2022-09-30T00:29:58;5.10;;;4.60;;
16468;SDS011;8345;50.902;6.956;2022-09-30T00:32:27;6.60;;;4.40;;
16468;SDS011;8345;50.902;6.956;2022-09-30T00:34:54;5.80;;;5.00;;
16468;SDS011;8345;50.902;6.956;2022-09-30T00:37:21;5.33;;;4.33;;
16468;SDS011;8345;50.902;6.956;2022-09-30T00:39:48;4.53;;;4.13;;
16468;SDS011;8345;50.902;6.956;2022-09-30T00:42:16;5.27;;;4.73;;
16468;SDS011;8345;50.902;6.956;2022-09-30T00:44:48;5.90;;;4.77;;
16468;SDS011;8345;50.902;6.956;2022-09-30T00:47:39;5.73;;;4.67;;
16468;SDS011;8345;50.902;6.956;2022-09-30T00:50:14;5.37;;;4.87;;
16468;SDS011;8345;50.902;6.956;2022-09-30T00:52:42;6.33;;;4.80;;
16468;SDS011;8345;50.902;6.956;2022-09-30T00:55:14;6.37;;;4.80;;
16468;SDS011;8345;50.902;6.956;2022-09-30T00:57:44;5.63;;;4.60;;
16468;SDS011;8345;50.902;6.956;2022-09-30T01:00:11;5.10;;;4.60;;
16468;SDS011;8345;50.902;6.956;2022-09-30T01:02:40;6.00;;;4.37;;
16468;SDS011;8345;50.902;6.956;2022-09-30T01:05:07;6.20;;;5.13;;
16468;SDS011;8345;50.902;6.956;2022-09-30T01:07:35;7.60;;;5.27;;
16468;SDS011;8345;50.902;6.956;2022-09-30T01:10:03;5.73;;;5.23;;
16468;SDS011;8345;50.902;6.956;2022-09-30T01:12:30;6.10;;;5.47;;
16468;SDS011;8345;50.902;6.956;2022-09-30T01:14:58;5.30;;;4.57;;
16468;SDS011;8345;50.902;6.956;2022-09-30T01:17:28;5.40;;;4.67;;
16468;SDS011;8345;50.902;6.956;2022-09-30T01:20:05;5.30;;;4.70;;
16468;SDS011;8345;50.902;6.956;2022-09-30T01:22:39;6.10;;;4.97;;
16468;SDS011;8345;50.902;6.956;2022-09-30T01:28:09;5.53;;;4.97;;
16468;SDS011;8345;50.902;6.956;2022-09-30T01:30:47;5.63;;;4.87;;
16468;SDS011;8345;50.902;6.956;2022-09-30T01:33:20;6.23;;;4.90;;
16468;SDS011;8345;50.902;6.956;2022-09-30T01:35:58;9.37;;;5.63;;
16468;SDS011;8345;50.902;6.956;2022-09-30T01:38:31;6.93;;;5.30;;
16468;SDS011;8345;50.902;6.956;2022-09-30T01:41:03;5.47;;;4.97;;
16468;SDS011;8345;50.902;6.956;2022-09-30T01:43:34;9.63;;;5.60;;
16468;SDS011;8345;50.902;6.956;2022-09-30T01:46:07;6.40;;;5.67;;
16468;SDS011;8345;50.902;6.956;2022-09-30T01:48:39;7.67;;;5.37;;
16468;SDS011;8345;50.902;6.956;2022-09-30T01:51:07;7.63;;;5.00;;
16468;SDS011;8345;50.902;6.956;2022-09-30T01:53:36;7.63;;;5.60;;
16468;SDS011;8345;50.902;6.956;2022-09-30T01:56:09;7.07;;;5.30;;
16468;SDS011;8345;50.902;6.956;2022-09-30T01:58:38;6.73;;;5.40;;
16468;SDS011;8345;50.902;6.956;2022-09-30T02:01:09;6.43;;;5.27;;
16468;SDS011;8345;50.902;6.956;2022-09-30T02:03:38;5.70;;;5.00;;
16468;SDS011;8345;50.902;6.956;2022-09-30T02:06:09;6.13;;;5.53;;
16468;SDS011;8345;50.902;6.956;2022-09-30T02:08:38;5.30;;;4.80;;
16468;SDS011;8345;50.902;6.956;2022-09-30T02:11:07;5.97;;;5.27;;
16468;SDS011;8345;50.902;6.956;2022-09-30T02:13:36;5.40;;;4.90;;
16468;SDS011;8345;50.902;6.956;2022-09-30T02:16:05;6.63;;;4.93;;
16468;SDS011;8345;50.902;6.956;2022-09-30T02:18:39;5.97;;;5.00;;
16468;SDS011;8345;50.902;6.956;2022-09-30T02:21:07;5.80;;;5.20;;
16468;SDS011;8345;50.902;6.956;2022-09-30T02:23:37;6.87;;;5.67;;
16468;SDS011;8345;50.902;6.956;2022-09-30T02:26:07;6.33;;;5.00;;
16468;SDS011;8345;50.902;6.956;2022-09-30T02:28:36;5.37;;;4.87;;
16468;SDS011;8345;50.902;6.956;2022-09-30T02:31:04;5.57;;;4.97;;
16468;SDS011;8345;50.902;6.956;2022-09-30T02:33:36;6.07;;;4.93;;
16468;SDS011;8345;50.902;6.956;2022-09-30T02:36:06;5.57;;;4.30;;
16468;SDS011;8345;50.902;6.956;2022-09-30T02:38:37;5.33;;;4.47;;
16468;SDS011;8345;50.902;6.956;2022-09-30T02:41:07;5.93;;;4.93;;
16468;SDS011;8345;50.902;6.956;2022-09-30T02:43:35;7.70;;;5.00;;
16468;SDS011;8345;50.902;6.956;2022-09-30T02:46:07;6.00;;;5.23;;
16468;SDS011;8345;50.902;6.956;2022-09-30T02:48:37;7.93;;;5.33;;
16468;SDS011;8345;50.902;6.956;2022-09-30T02:51:10;5.67;;;5.17;;
16468;SDS011;8345;50.902;6.956;2022-09-30T02:53:42;5.63;;;5.07;;
16468;SDS011;8345;50.902;6.956;2022-09-30T02:56:11;6.67;;;5.13;;
16468;SDS011;8345;50.902;6.956;2022-09-30T02:58:39;7.07;;;4.97;;
16468;SDS011;8345;50.902;6.956;2022-09-30T03:01:08;6.17;;;5.30;;
16468;SDS011;8345;50.902;6.956;2022-09-30T03:03:36;6.87;;;5.23;;
16468;SDS011;8345;50.902;6.956;2022-09-30T03:06:04;5.60;;;5.00;;
16468;SDS011;8345;50.902;6.956;2022-09-30T03:08:33;6.57;;;4.80;;
16468;SDS011;8345;50.902;6.956;2022-09-30T03:11:00;4.93;;;4.43;;
16468;SDS011;8345;50.902;6.956;2022-09-30T03:13:41;5.93;;;4.80;;
16468;SDS011;8345;50.902;6.956;2022-09-30T03:16:13;5.27;;;4.77;;
16468;SDS011;8345;50.902;6.956;2022-09-30T03:18:50;6.53;;;5.23;;
16468;SDS011;8345;50.902;6.956;2022-09-30T03:21:27;5.60;;;4.70;;
16468;SDS011;8345;50.902;6.956;2022-09-30T03:24:04;5.87;;;5.00;;
16468;SDS011;8345;50.902;6.956;2022-09-30T03:26:36;5.20;;;4.70;;
16468;SDS011;8345;50.902;6.956;2022-09-30T03:29:08;6.57;;;4.40;;
16468;SDS011;8345;50.902;6.956;2022-09-30T03:31:39;6.00;;;4.73;;
16468;SDS011;8345;50.902;6.956;2022-09-30T03:34:10;5.30;;;4.80;;
16468;SDS011;8345;50.902;6.956;2022-09-30T03:36:40;5.43;;;4.93;;
16468;SDS011;8345;50.902;6.956;2022-09-30T03:39:15;5.17;;;4.67;;
16468;SDS011;8345;50.902;6.956;2022-09-30T03:41:45;6.23;;;4.87;;
16468;SDS011;8345;50.902;6.956;2022-09-30T03:44:14;5.50;;;4.97;;
16468;SDS011;8345;50.902;6.956;2022-09-30T03:46:43;6.73;;;4.70;;
16468;SDS011;8345;50.902;6.956;2022-09-30T03:49:12;5.50;;;4.97;;
16468;SDS011;8345;50.902;6.956;2022-09-30T03:51:40;6.43;;;5.23;;
16468;SDS011;8345;50.902;6.956;2022-09-30T03:54:08;5.77;;;5.03;;
16468;SDS011;8345;50.902;6.956;2022-09-30T03:56:37;6.10;;;5.50;;
16468;SDS011;8345;50.902;6.956;2022-09-30T03:59:07;6.63;;;5.37;;
16468;SDS011;8345;50.902;6.956;2022-09-30T04:01:35;8.13;;;5.63;;
16468;SDS011;8345;50.902;6.956;2022-09-30T04:04:03;6.03;;;5.40;;
16468;SDS011;8345;50.902;6.956;2022-09-30T04:06:30;5.73;;;5.00;;
16468;SDS011;8345;50.902;6.956;2022-09-30T04:08:57;6.10;;;5.37;;
16468;SDS011;8345;50.902;6.956;2022-09-30T04:11:24;6.83;;;5.37;;
16468;SDS011;8345;50.902;6.956;2022-09-30T04:13:53;5.77;;;4.97;;
16468;SDS011;8345;50.902;6.956;2022-09-30T04:16:20;5.20;;;4.70;;
16468;SDS011;8345;50.902;6.956;2022-09-30T04:18:47;6.40;;;5.63;;
16468;SDS011;8345;50.902;6.956;2022-09-30T04:21:15;6.00;;;5.30;;
16468;SDS011;8345;50.902;6.956;2022-09-30T04:23:42;5.70;;;5.10;;
16468;SDS011;8345;50.902;6.956;2022-09-30T04:26:10;5.47;;;4.93;;
16468;SDS011;8345;50.902;6.956;2022-09-30T04:28:37;6.53;;;5.20;;
16468;SDS011;8345;50.902;6.956;2022-09-30T04:31:06;6.53;;;5.37;;
16468;SDS011;8345;50.902;6.956;2022-09-30T04:33:33;5.80;;;5.30;;
16468;SDS011;8345;50.902;6.956;2022-09-30T04:36:00;7.07;;;5.27;;
16468;SDS011;8345;50.902;6.956;2022-09-30T04:38:28;7.33;;;5.90;;
16468;SDS011;8345;50.902;6.956;2022-09-30T04:40:55;5.93;;;5.33;;
16468;SDS011;8345;50.902;6.956;2022-09-30T04:43:22;5.60;;;5.07;;
16468;SDS011;8345;50.902;6.956;2022-09-30T04:45:50;7.00;;;5.17;;
16468;SDS011;8345;50.902;6.956;2022-09-30T04:48:20;7.47;;;6.30;;
16468;SDS011;8345;50.902;6.956;2022-09-30T04:50:47;7.00;;;5.67;;
16468;SDS011;8345;50.902;6.956;2022-09-30T04:53:14;5.77;;;5.17;;
16468;SDS011;8345;50.902;6.956;2022-09-30T04:55:42;6.00;;;5.33;;
16468;SDS011;8345;50.902;6.956;2022-09-30T04:58:10;6.43;;;5.40;;
16468;SDS011;8345;50.902;6.956;2022-09-30T05:00:37;7.27;;;5.37;;
16468;SDS011;8345;50.902;6.956;2022-09-30T05:03:04;6.43;;;5.73;;
16468;SDS011;8345;50.902;6.956;2022-09-30T05:05:33;6.40;;;5.73;;
16468;SDS011;8345;50.902;6.956;2022-09-30T05:08:00;7.33;;;6.03;;
16468;SDS011;8345;50.902;6.956;2022-09-30T05:10:28;5.87;;;5.30;;
16468;SDS011;8345;50.902;6.956;2022-09-30T05:12:55;6.37;;;5.77;;
16468;SDS011;8345;50.902;6.956;2022-09-30T05:15:23;6.87;;;5.57;;
16468;SDS011;8345;50.902;6.956;2022-09-30T05:17:51;8.83;;;6.17;;
16468;SDS011;8345;50.902;6.956;2022-09-30T05:20:18;9.80;;;6.00;;
16468;SDS011;8345;50.902;6.956;2022-09-30T05:22:47;7.73;;;5.87;;
16468;SDS011;8345;50.902;6.956;2022-09-30T05:25:19;7.13;;;5.63;;
16468;SDS011;8345;50.902;6.956;2022-09-30T05:27:47;6.17;;;5.57;;
16468;SDS011;8345;50.902;6.956;2022-09-30T05:30:14;6.90;;;5.50;;
16468;SDS011;8345;50.902;6.956;2022-09-30T05:32:42;6.40;;;5.40;;
16468;SDS011;8345;50.902;6.956;2022-09-30T05:35:10;7.00;;;5.47;;
16468;SDS011;8345;50.902;6.956;2022-09-30T05:37:37;7.50;;;5.03;;
16468;SDS011;8345;50.902;6.956;2022-09-30T05:40:06;6.70;;;5.60;;
16468;SDS011;8345;50.902;6.956;2022-09-30T05:42:34;6.40;;;5.80;;
16468;SDS011;8345;50.902;6.956;2022-09-30T05:45:01;5.93;;;5.43;;
16468;SDS011;8345;50.902;6.956;2022-09-30T05:47:28;7.27;;;5.43;;
16468;SDS011;8345;50.902;6.956;2022-09-30T05:49:55;5.47;;;4.97;;
16468;SDS011;8345;50.902;6.956;2022-09-30T05:52:22;6.30;;;5.70;;
16468;SDS011;8345;50.902;6.956;2022-09-30T05:54:50;6.23;;;5.63;;
16468;SDS011;8345;50.902;6.956;2022-09-30T05:57:19;7.97;;;5.70;;
16468;SDS011;8345;50.902;6.956;2022-09-30T05:59:46;6.97;;;5.73;;
16468;SDS011;8345;50.902;6.956;2022-09-30T06:02:15;5.53;;;4.93;;
16468;SDS011;8345;50.902;6.956;2022-09-30T06:04:42;6.03;;;5.37;;
16468;SDS011;8345;50.902;6.956;2022-09-30T06:07:09;5.83;;;4.80;;
16468;SDS011;8345;50.902;6.956;2022-09-30T06:09:37;6.63;;;5.97;;
16468;SDS011;8345;50.902;6.956;2022-09-30T06:12:04;6.93;;;5.73;;
16468;SDS011;8345;50.902;6.956;2022-09-30T06:14:33;7.03;;;6.20;;
16468;SDS011;8345;50.902;6.956;2022-09-30T06:17:00;10.10;;;6.17;;
16468;SDS011;8345;50.902;6.956;2022-09-30T06:19:27;7.17;;;4.93;;
16468;SDS011;8345;50.902;6.956;2022-09-30T06:21:55;5.70;;;5.20;;
16468;SDS011;8345;50.902;6.956;2022-09-30T06:24:22;6.53;;;5.00;;
16468;SDS011;8345;50.902;6.956;2022-09-30T06:26:49;5.47;;;4.80;;
16468;SDS011;8345;50.902;6.956;2022-09-30T06:29:16;5.23;;;4.83;;
16468;SDS011;8345;50.902;6.956;2022-09-30T06:31:46;5.50;;;5.00;;
16468;SDS011;8345;50.902;6.956;2022-09-30T06:34:13;6.60;;;5.13;;
16468;SDS011;8345;50.902;6.956;2022-09-30T06:36:40;6.37;;;5.63;;
16468;SDS011;8345;50.902;6.956;2022-09-30T06:39:07;7.50;;;5.40;;
16468;SDS011;8345;50.902;6.956;2022-09-30T06:41:34;7.10;;;5.80;;
16468;SDS011;8345;50.902;6.956;2022-09-30T06:44:03;9.70;;;7.00;;
16468;SDS011;8345;50.902;6.956;2022-09-30T06:46:31;10.63;;;7.83;;
16468;SDS011;8345;50.902;6.956;2022-09-30T06:49:02;10.33;;;7.87;;
16468;SDS011;8345;50.902;6.956;2022-09-30T06:51:30;12.27;;;8.90;;
16468;SDS011;8345;50.902;6.956;2022-09-30T06:53:58;10.63;;;8.07;;
16468;SDS011;8345;50.902;6.956;2022-09-30T06:56:25;12.27;;;9.60;;
16468;SDS011;8345;50.902;6.956;2022-09-30T06:58:53;11.00;;;8.57;;
16468;SDS011;8345;50.902;6.956;2022-09-30T07:01:21;10.37;;;8.43;;
16468;SDS011;8345;50.902;6.956;2022-09-30T07:03:48;10.30;;;9.10;;
16468;SDS011;8345;50.902;6.956;2022-09-30T07:06:23;9.57;;;8.60;;
16468;SDS011;8345;50.902;6.956;2022-09-30T07:08:51;10.30;;;9.10;;
16468;SDS011;8345;50.902;6.956;2022-09-30T07:11:19;50.87;;;14.97;;
16468;SDS011;8345;50.902;6.956;2022-09-30T07:13:46;17.93;;;9.57;;
16468;SDS011;8345;50.902;6.956;2022-09-30T07:16:14;11.03;;;9.00;;
16468;SDS011;8345;50.902;6.956;2022-09-30T07:18:42;10.73;;;9.40;;
16468;SDS011;8345;50.902;6.956;2022-09-30T07:21:10;9.67;;;8.60;;
16468;SDS011;8345;50.902;6.956;2022-09-30T07:23:39;13.17;;;9.57;;
16468;SDS011;8345;50.902;6.956;2022-09-30T07:26:09;12.77;;;10.10;;
16468;SDS011;8345;50.902;6.956;2022-09-30T07:28:36;12.00;;;9.60;;
16468;SDS011;8345;50.902;6.956;2022-09-30T07:31:06;12.93;;;8.97;;
16468;SDS011;8345;50.902;6.956;2022-09-30T07:33:36;13.50;;;10.13;;
16468;SDS011;8345;50.902;6.956;2022-09-30T07:36:05;12.40;;;9.93;;
16468;SDS011;8345;50.902;6.956;2022-09-30T07:38:33;14.07;;;10.20;;
16468;SDS011;8345;50.902;6.956;2022-09-30T07:41:03;12.13;;;10.10;;
16468;SDS011;8345;50.902;6.956;2022-09-30T07:43:32;12.33;;;10.07;;
16468;SDS011;8345;50.902;6.956;2022-09-30T07:46:03;13.80;;;11.40;;
16468;SDS011;8345;50.902;6.956;2022-09-30T07:48:30;14.83;;;10.70;;
16468;SDS011;8345;50.902;6.956;2022-09-30T07:51:07;16.10;;;11.23;;
16468;SDS011;8345;50.902;6.956;2022-09-30T07:53:35;14.70;;;12.00;;
16468;SDS011;8345;50.902;6.956;2022-09-30T07:56:04;14.07;;;11.27;;
16468;SDS011;8345;50.902;6.956;2022-09-30T07:58:32;15.67;;;12.57;;
16468;SDS011;8345;50.902;6.956;2022-09-30T08:00:59;15.23;;;12.20;;
16468;SDS011;8345;50.902;6.956;2022-09-30T08:03:27;15.40;;;12.53;;
16468;SDS011;8345;50.902;6.956;2022-09-30T08:05:54;14.00;;;12.13;;
16468;SDS011;8345;50.902;6.956;2022-09-30T08:08:21;15.60;;;13.83;;
16468;SDS011;8345;50.902;6.956;2022-09-30T08:10:48;17.37;;;14.33;;
16468;SDS011;8345;50.902;6.956;2022-09-30T08:13:17;17.80;;;13.73;;
16468;SDS011;8345;50.902;6.956;2022-09-30T08:15:44;17.00;;;13.13;;
16468;SDS011;8345;50.902;6.956;2022-09-30T08:18:11;14.30;;;12.80;;
16468;SDS011;8345;50.902;6.956;2022-09-30T08:20:39;16.27;;;13.30;;
16468;SDS011;8345;50.902;6.956;2022-09-30T08:23:06;15.17;;;13.47;;
16468;SDS011;8345;50.902;6.956;2022-09-30T08:25:33;15.20;;;13.50;;
16468;SDS011;8345;50.902;6.956;2022-09-30T08:28:00;14.43;;;12.93;;
16468;SDS011;8345;50.902;6.956;2022-09-30T08:30:29;15.70;;;13.57;;
16468;SDS011;8345;50.902;6.956;2022-09-30T08:32:56;14.47;;;12.97;;
16468;SDS011;8345;50.902;6.956;2022-09-30T08:35:23;14.13;;;12.63;;
16468;SDS011;8345;50.902;6.956;2022-09-30T08:37:51;14.00;;;11.87;;
16468;SDS011;8345;50.902;6.956;2022-09-30T08:40:19;13.33;;;11.83;;
16468;SDS011;8345;50.902;6.956;2022-09-30T08:43:00;13.10;;;11.80;;
16468;SDS011;8345;50.902;6.956;2022-09-30T08:45:32;13.17;;;11.27;;
16468;SDS011;8345;50.902;6.956;2022-09-30T08:48:04;12.50;;;11.20;;
16468;SDS011;8345;50.902;6.956;2022-09-30T08:50:34;14.67;;;11.93;;
16468;SDS011;8345;50.902;6.956;2022-09-30T08:53:07;11.90;;;10.67;;
16468;SDS011;8345;50.902;6.956;2022-09-30T08:55:38;11.97;;;9.90;;
16468;SDS011;8345;50.902;6.956;2022-09-30T08:58:08;11.87;;;10.20;;
16468;SDS011;8345;50.902;6.956;2022-09-30T09:00:41;10.97;;;9.80;;
16468;SDS011;8345;50.902;6.956;2022-09-30T09:03:08;11.87;;;10.40;;
16468;SDS011;8345;50.902;6.956;2022-09-30T09:05:39;10.53;;;9.43;;
16468;SDS011;8345;50.902;6.956;2022-09-30T09:08:12;10.57;;;9.57;;
16468;SDS011;8345;50.902;6.956;2022-09-30T09:10:44;11.50;;;10.40;;
16468;SDS011;8345;50.902;6.956;2022-09-30T09:13:16;11.90;;;10.63;;
16468;SDS011;8345;50.902;6.956;2022-09-30T09:15:49;11.53;;;10.30;;
16468;SDS011;8345;50.902;6.956;2022-09-30T09:18:32;14.20;;;11.30;;
16468;SDS011;8345;50.902;6.956;2022-09-30T09:21:03;10.87;;;9.60;;
16468;SDS011;8345;50.902;6.956;2022-09-30T09:23:34;11.43;;;10.40;;
16468;SDS011;8345;50.902;6.956;2022-09-30T09:26:02;11.67;;;10.47;;
16468;SDS011;8345;50.902;6.956;2022-09-30T09:28:31;11.17;;;10.17;;
16468;SDS011;8345;50.902;6.956;2022-09-30T09:31:03;10.93;;;9.83;;
16468;SDS011;8345;50.902;6.956;2022-09-30T09:33:31;11.53;;;10.27;;
16468;SDS011;8345;50.902;6.956;2022-09-30T09:36:12;11.87;;;10.67;;
16468;SDS011;8345;50.902;6.956;2022-09-30T09:38:46;12.30;;;10.10;;
16468;SDS011;8345;50.902;6.956;2022-09-30T09:41:22;12.17;;;10.33;;
16468;SDS011;8345;50.902;6.956;2022-09-30T09:43:54;12.23;;;10.63;;
16468;SDS011;8345;50.902;6.956;2022-09-30T09:46:25;10.63;;;9.63;;
16468;SDS011;8345;50.902;6.956;2022-09-30T09:51:36;9.70;;;8.80;;
16468;SDS011;8345;50.902;6.956;2022-09-30T09:54:05;10.23;;;8.90;;
16468;SDS011;8345;50.902;6.956;2022-09-30T09:56:35;10.17;;;9.10;;
16468;SDS011;8345;50.902;6.956;2022-09-30T09:59:03;11.27;;;9.73;;
16468;SDS011;8345;50.902;6.956;2022-09-30T10:01:35;10.37;;;9.27;;
16468;SDS011;8345;50.902;6.956;2022-09-30T10:04:06;10.27;;;9.13;;
16468;SDS011;8345;50.902;6.956;2022-09-30T10:06:41;9.90;;;8.73;;
16468;SDS011;8345;50.902;6.956;2022-09-30T10:09:13;10.50;;;9.20;;
16468;SDS011;8345;50.902;6.956;2022-09-30T10:11:47;10.10;;;9.03;;
16468;SDS011;8345;50.902;6.956;2022-09-30T10:14:15;9.90;;;8.90;;
16468;SDS011;8345;50.902;6.956;2022-09-30T10:16:45;9.97;;;9.07;;
16468;SDS011;8345;50.902;6.956;2022-09-30T10:19:17;10.00;;;9.00;;
16468;SDS011;8345;50.902;6.956;2022-09-30T10:21:45;9.70;;;8.70;;
16468;SDS011;8345;50.902;6.956;2022-09-30T10:24:24;9.97;;;7.37;;
16468;SDS011;8345;50.902;6.956;2022-09-30T10:26:52;8.73;;;7.83;;
16468;SDS011;8345;50.902;6.956;2022-09-30T10:29:26;10.73;;;7.73;;
16468;SDS011;8345;50.902;6.956;2022-09-30T10:31:57;8.10;;;7.30;;
16468;SDS011;8345;50.902;6.956;2022-09-30T10:34:25;7.93;;;6.50;;
16468;SDS011;8345;50.902;6.956;2022-09-30T10:36:54;8.53;;;7.20;;
16468;SDS011;8345;50.902;6.956;2022-09-30T10:39:22;8.27;;;7.03;;
16468;SDS011;8345;50.902;6.956;2022-09-30T10:41:50;8.93;;;7.37;;
16468;SDS011;8345;50.902;6.956;2022-09-30T10:44:20;7.80;;;6.70;;
16468;SDS011;8345;50.902;6.956;2022-09-30T10:46:48;9.20;;;6.57;;
16468;SDS011;8345;50.902;6.956;2022-09-30T10:49:25;7.90;;;7.07;;
16468;SDS011;8345;50.902;6.956;2022-09-30T10:51:53;8.27;;;6.50;;
16468;SDS011;8345;50.902;6.956;2022-09-30T10:54:32;6.40;;;5.80;;
16468;SDS011;8345;50.902;6.956;2022-09-30T10:57:00;6.83;;;4.77;;
16468;SDS011;8345;50.902;6.956;2022-09-30T10:59:30;6.07;;;5.20;;
16468;SDS011;8345;50.902;6.956;2022-09-30T11:01:59;6.03;;;5.47;;
16468;SDS011;8345;50.902;6.956;2022-09-30T11:04:32;8.17;;;6.00;;
16468;SDS011;8345;50.902;6.956;2022-09-30T11:07:03;6.77;;;6.07;;
16468;SDS011;8345;50.902;6.956;2022-09-30T11:09:36;7.00;;;5.87;;
16468;SDS011;8345;50.902;6.956;2022-09-30T11:12:10;7.40;;;5.97;;
16468;SDS011;8345;50.902;6.956;2022-09-30T11:14:41;6.67;;;6.03;;
16468;SDS011;8345;50.902;6.956;2022-09-30T11:17:12;6.00;;;5.17;;
16468;SDS011;8345;50.902;6.956;2022-09-30T11:19:45;5.07;;;4.57;;
16468;SDS011;8345;50.902;6.956;2022-09-30T11:22:20;6.10;;;5.13;;
16468;SDS011;8345;50.902;6.956;2022-09-30T11:24:50;7.17;;;4.93;;
16468;SDS011;8345;50.902;6.956;2022-09-30T11:27:19;5.57;;;5.07;;
16468;SDS011;8345;50.902;6.956;2022-09-30T11:29:53;7.13;;;4.77;;
16468;SDS011;8345;50.902;6.956;2022-09-30T11:32:29;5.93;;;4.73;;
16468;SDS011;8345;50.902;6.956;2022-09-30T11:35:04;5.87;;;4.77;;
16468;SDS011;8345;50.902;6.956;2022-09-30T11:37:39;4.10;;;3.80;;
16468;SDS011;8345;50.902;6.956;2022-09-30T11:40:23;5.23;;;4.60;;
16468;SDS011;8345;50.902;6.956;2022-09-30T11:42:54;3.97;;;3.57;;
16468;SDS011;8345;50.902;6.956;2022-09-30T11:45:26;5.60;;;3.87;;
16468;SDS011;8345;50.902;6.956;2022-09-30T11:48:06;5.30;;;3.33;;
16468;SDS011;8345;50.902;6.956;2022-09-30T11:50:45;5.03;;;3.83;;
16468;SDS011;8345;50.902;6.956;2022-09-30T11:53:16;6.23;;;3.73;;
16468;SDS011;8345;50.902;6.956;2022-09-30T11:58:30;4.97;;;3.77;;
16468;SDS011;8345;50.902;6.956;2022-09-30T12:01:04;6.20;;;3.50;;
16468;SDS011;8345;50.902;6.956;2022-09-30T12:03:37;3.77;;;2.87;;
16468;SDS011;8345;50.902;6.956;2022-09-30T12:06:09;4.30;;;2.90;;
16468;SDS011;8345;50.902;6.956;2022-09-30T12:08:39;4.60;;;2.70;;
16468;SDS011;8345;50.902;6.956;2022-09-30T12:11:11;2.87;;;2.53;;
16468;SDS011;8345;50.902;6.956;2022-09-30T12:13:40;4.60;;;3.30;;
16468;SDS011;8345;50.902;6.956;2022-09-30T12:16:11;3.53;;;2.70;;
16468;SDS011;8345;50.902;6.956;2022-09-30T12:18:41;2.30;;;2.00;;
16468;SDS011;8345;50.902;6.956;2022-09-30T12:21:16;2.47;;;2.27;;
16468;SDS011;8345;50.902;6.956;2022-09-30T12:23:45;2.70;;;1.97;;
16468;SDS011;8345;50.902;6.956;2022-09-30T12:26:13;2.53;;;2.33;;
16468;SDS011;8345;50.902;6.956;2022-09-30T12:28:42;2.30;;;1.77;;
16468;SDS011;8345;50.902;6.956;2022-09-30T12:31:34;3.67;;;2.47;;
16468;SDS011;8345;50.902;6.956;2022-09-30T12:34:10;3.93;;;2.20;;
16468;SDS011;8345;50.902;6.956;2022-09-30T12:36:44;4.77;;;2.30;;
16468;SDS011;8345;50.902;6.956;2022-09-30T12:42:12;4.43;;;2.83;;
16468;SDS011;8345;50.902;6.956;2022-09-30T12:44:47;3.50;;;2.63;;
16468;SDS011;8345;50.902;6.956;2022-09-30T12:47:19;4.00;;;2.33;;
16468;SDS011;8345;50.902;6.956;2022-09-30T12:49:51;4.67;;;2.20;;
16468;SDS011;8345;50.902;6.956;2022-09-30T12:52:21;4.83;;;2.43;;
16468;SDS011;8345;50.902;6.956;2022-09-30T12:54:49;3.37;;;2.10;;
16468;SDS011;8345;50.902;6.956;2022-09-30T12:57:19;2.17;;;1.80;;
16468;SDS011;8345;50.902;6.956;2022-09-30T12:59:49;2.73;;;1.57;;
16468;SDS011;8345;50.902;6.956;2022-09-30T13:02:26;3.07;;;1.33;;
16468;SDS011;8345;50.902;6.956;2022-09-30T13:04:58;4.87;;;1.80;;
16468;SDS011;8345;50.902;6.956;2022-09-30T13:10:29;14.97;;;3.23;;
16468;SDS011;8345;50.902;6.956;2022-09-30T13:15:42;2.07;;;1.77;;
16468;SDS011;8345;50.902;6.956;2022-09-30T13:20:56;3.90;;;1.90;;
16468;SDS011;8345;50.902;6.956;2022-09-30T13:23:43;2.47;;;1.60;;
16468;SDS011;8345;50.902;6.956;2022-09-30T13:28:54;1.57;;;1.10;;
16468;SDS011;8345;50.902;6.956;2022-09-30T13:34:27;2.77;;;1.40;;
16468;SDS011;8345;50.902;6.956;2022-09-30T13:36:57;2.73;;;1.17;;
16468;SDS011;8345;50.902;6.956;2022-09-30T13:39:24;1.30;;;1.20;;
16468;SDS011;8345;50.902;6.956;2022-09-30T13:41:59;1.73;;;1.30;;
16468;SDS011;8345;50.902;6.956;2022-09-30T13:44:32;2.70;;;1.67;;
16468;SDS011;8345;50.902;6.956;2022-09-30T13:47:05;2.40;;;1.40;;
16468;SDS011;8345;50.902;6.956;2022-09-30T13:49:37;2.03;;;1.37;;
16468;SDS011;8345;50.902;6.956;2022-09-30T13:52:06;1.33;;;1.23;;
16468;SDS011;8345;50.902;6.956;2022-09-30T13:54:34;3.03;;;1.57;;
16468;SDS011;8345;50.902;6.956;2022-09-30T13:57:04;2.10;;;1.23;;
16468;SDS011;8345;50.902;6.956;2022-09-30T13:59:46;5.60;;;1.50;;
16468;SDS011;8345;50.902;6.956;2022-09-30T14:02:34;3.17;;;1.73;;
16468;SDS011;8345;50.902;6.956;2022-09-30T14:05:12;1.87;;;1.30;;
16468;SDS011;8345;50.902;6.956;2022-09-30T14:07:43;1.20;;;1.03;;
16468;SDS011;8345;50.902;6.956;2022-09-30T14:10:21;1.53;;;1.27;;
16468;SDS011;8345;50.902;6.956;2022-09-30T14:12:58;2.10;;;1.80;;
16468;SDS011;8345;50.902;6.956;2022-09-30T14:15:38;1.73;;;1.40;;
16468;SDS011;8345;50.902;6.956;2022-09-30T14:18:17;2.03;;;1.30;;
16468;SDS011;8345;50.902;6.956;2022-09-30T14:20:55;3.20;;;1.70;;
16468;SDS011;8345;50.902;6.956;2022-09-30T14:23:26;2.07;;;1.60;;
16468;SDS011;8345;50.902;6.956;2022-09-30T14:25:55;1.93;;;1.23;;
16468;SDS011;8345;50.902;6.956;2022-09-30T14:28:25;1.97;;;1.77;;
16468;SDS011;8345;50.902;6.956;2022-09-30T14:30:58;4.30;;;1.57;;
16468;SDS011;8345;50.902;6.956;2022-09-30T14:33:37;1.40;;;1.30;;
16468;SDS011;8345;50.902;6.956;2022-09-30T14:36:05;1.50;;;1.40;;
16468;SDS011;8345;50.902;6.956;2022-09-30T14:38:34;2.00;;;1.60;;
16468;SDS011;8345;50.902;6.956;2022-09-30T14:41:02;3.37;;;1.80;;
16468;SDS011;8345;50.902;6.956;2022-09-30T14:43:33;1.43;;;1.30;;
16468;SDS011;8345;50.902;6.956;2022-09-30T14:46:04;2.83;;;1.50;;
16468;SDS011;8345;50.902;6.956;2022-09-30T14:48:32;1.70;;;1.60;;
16468;SDS011;8345;50.902;6.956;2022-09-30T14:51:01;1.50;;;1.40;;
16468;SDS011;8345;50.902;6.956;2022-09-30T14:53:30;1.93;;;1.50;;
16468;SDS011;8345;50.902;6.956;2022-09-30T14:55:57;2.37;;;1.70;;
16468;SDS011;8345;50.902;6.956;2022-09-30T14:58:26;1.70;;;1.40;;
16468;SDS011;8345;50.902;6.956;2022-09-30T15:00:59;2.70;;;1.73;;
16468;SDS011;8345;50.902;6.956;2022-09-30T15:03:29;1.57;;;1.30;;
16468;SDS011;8345;50.902;6.956;2022-09-30T15:05:56;2.40;;;1.37;;
16468;SDS011;8345;50.902;6.956;2022-09-30T15:08:23;1.97;;;1.20;;
16468;SDS011;8345;50.902;6.956;2022-09-30T15:10:51;2.90;;;1.50;;
16468;SDS011;8345;50.902;6.956;2022-09-30T15:13:20;1.30;;;1.20;;
16468;SDS011;8345;50.902;6.956;2022-09-30T15:15:48;2.37;;;1.10;;
16468;SDS011;8345;50.902;6.956;2022-09-30T15:18:25;2.37;;;1.60;;
16468;SDS011;8345;50.902;6.956;2022-09-30T15:20:54;3.10;;;1.87;;
16468;SDS011;8345;50.902;6.956;2022-09-30T15:23:24;1.17;;;1.10;;
16468;SDS011;8345;50.902;6.956;2022-09-30T15:25:52;1.43;;;1.30;;
16468;SDS011;8345;50.902;6.956;2022-09-30T15:28:19;2.00;;;1.23;;
16468;SDS011;8345;50.902;6.956;2022-09-30T15:30:47;2.03;;;1.70;;
16468;SDS011;8345;50.902;6.956;2022-09-30T15:33:16;1.47;;;1.23;;
16468;SDS011;8345;50.902;6.956;2022-09-30T15:35:44;2.00;;;1.50;;
16468;SDS011;8345;50.902;6.956;2022-09-30T15:38:15;1.70;;;1.30;;